sensor_id;sensor_type;location;lat;lon;timestamp;P1;durP1;ratioP1;P2;durP2;ratioP2
38479;SDS011;62333;51.980;5.934;2023-07-30T00:02:16;5.50;;;1.50;;
38479;SDS011;62333;51.980;5.934;2023-07-30T00:04:42;4.30;;;0.98;;
38479;SDS011;62333;51.980;5.934;2023-07-30T00:07:08;2.95;;;0.95;;
38479;SDS011;62333;51.980;5.934;2023-07-30T00:09:33;4.72;;;1.55;;
38479;SDS011;62333;51.980;5.934;2023-07-30T00:11:59;3.38;;;0.88;;
38479;SDS011;62333;51.980;5.934;2023-07-30T00:14:27;8.98;;;1.55;;
38479;SDS011;62333;51.980;5.934;2023-07-30T00:16:52;3.78;;;1.48;;
38479;SDS011;62333;51.980;5.934;2023-07-30T00:19:18;3.75;;;1.15;;
38479;SDS011;62333;51.980;5.934;2023-07-30T00:21:44;3.05;;;0.68;;
38479;SDS011;62333;51.980;5.934;2023-07-30T00:24:12;4.30;;;0.75;;
38479;SDS011;62333;51.980;5.934;2023-07-30T00:26:38;3.38;;;0.95;;
38479;SDS011;62333;51.980;5.934;2023-07-30T00:29:03;4.10;;;1.60;;
38479;SDS011;62333;51.980;5.934;2023-07-30T00:31:29;4.68;;;0.80;;
38479;SDS011;62333;51.980;5.934;2023-07-30T00:33:55;4.78;;;1.35;;
38479;SDS011;62333;51.980;5.934;2023-07-30T00:36:21;4.30;;;1.23;;
38479;SDS011;62333;51.980;5.934;2023-07-30T00:38:47;5.25;;;1.40;;
38479;SDS011;62333;51.980;5.934;2023-07-30T00:41:12;4.22;;;0.88;;
38479;SDS011;62333;51.980;5.934;2023-07-30T00:43:38;3.90;;;0.93;;
38479;SDS011;62333;51.980;5.934;2023-07-30T00:46:03;3.38;;;1.17;;
38479;SDS011;62333;51.980;5.934;2023-07-30T00:48:29;3.58;;;1.00;;
38479;SDS011;62333;51.980;5.934;2023-07-30T00:50:55;2.50;;;1.15;;
38479;SDS011;62333;51.980;5.934;2023-07-30T00:53:22;4.93;;;1.35;;
38479;SDS011;62333;51.980;5.934;2023-07-30T00:55:51;5.28;;;1.48;;
38479;SDS011;62333;51.980;5.934;2023-07-30T00:58:16;3.55;;;0.90;;
38479;SDS011;62333;51.980;5.934;2023-07-30T01:00:43;2.28;;;0.65;;
38479;SDS011;62333;51.980;5.934;2023-07-30T01:03:09;3.42;;;1.08;;
38479;SDS011;62333;51.980;5.934;2023-07-30T01:05:35;3.70;;;0.90;;
38479;SDS011;62333;51.980;5.934;2023-07-30T01:08:01;2.60;;;0.50;;
38479;SDS011;62333;51.980;5.934;2023-07-30T01:10:27;3.25;;;0.60;;
38479;SDS011;62333;51.980;5.934;2023-07-30T01:12:55;12.43;;;1.83;;
38479;SDS011;62333;51.980;5.934;2023-07-30T01:15:22;2.22;;;1.00;;
38479;SDS011;62333;51.980;5.934;2023-07-30T01:17:47;2.53;;;0.60;;
38479;SDS011;62333;51.980;5.934;2023-07-30T01:20:13;5.13;;;1.52;;
38479;SDS011;62333;51.980;5.934;2023-07-30T01:22:39;4.38;;;1.55;;
38479;SDS011;62333;51.980;5.934;2023-07-30T01:25:05;4.50;;;1.02;;
38479;SDS011;62333;51.980;5.934;2023-07-30T01:27:33;5.28;;;1.00;;
38479;SDS011;62333;51.980;5.934;2023-07-30T01:32:37;4.50;;;1.15;;
38479;SDS011;62333;51.980;5.934;2023-07-30T01:35:04;4.78;;;1.13;;
38479;SDS011;62333;51.980;5.934;2023-07-30T01:37:33;5.18;;;1.23;;
38479;SDS011;62333;51.980;5.934;2023-07-30T01:40:00;4.22;;;1.00;;
38479;SDS011;62333;51.980;5.934;2023-07-30T01:42:30;5.53;;;1.42;;
38479;SDS011;62333;51.980;5.934;2023-07-30T01:44:56;4.72;;;0.98;;
38479;SDS011;62333;51.980;5.934;2023-07-30T01:47:21;6.10;;;1.65;;
38479;SDS011;62333;51.980;5.934;2023-07-30T01:49:47;4.63;;;1.00;;
38479;SDS011;62333;51.980;5.934;2023-07-30T01:52:13;6.32;;;1.27;;
38479;SDS011;62333;51.980;5.934;2023-07-30T01:54:39;4.78;;;1.35;;
38479;SDS011;62333;51.980;5.934;2023-07-30T01:57:04;8.75;;;1.95;;
38479;SDS011;62333;51.980;5.934;2023-07-30T01:59:30;5.32;;;1.30;;
38479;SDS011;62333;51.980;5.934;2023-07-30T02:01:56;3.95;;;1.40;;
38479;SDS011;62333;51.980;5.934;2023-07-30T02:04:21;5.57;;;1.58;;
38479;SDS011;62333;51.980;5.934;2023-07-30T02:06:47;5.85;;;1.50;;
38479;SDS011;62333;51.980;5.934;2023-07-30T02:09:13;5.90;;;1.27;;
38479;SDS011;62333;51.980;5.934;2023-07-30T02:11:39;4.93;;;1.13;;
38479;SDS011;62333;51.980;5.934;2023-07-30T02:14:04;4.75;;;2.38;;
38479;SDS011;62333;51.980;5.934;2023-07-30T02:16:30;4.68;;;1.73;;
38479;SDS011;62333;51.980;5.934;2023-07-30T02:18:56;4.85;;;1.55;;
38479;SDS011;62333;51.980;5.934;2023-07-30T02:21:21;6.28;;;1.73;;
38479;SDS011;62333;51.980;5.934;2023-07-30T02:23:47;3.42;;;1.17;;
38479;SDS011;62333;51.980;5.934;2023-07-30T02:26:12;5.68;;;1.23;;
38479;SDS011;62333;51.980;5.934;2023-07-30T02:28:38;4.80;;;1.52;;
38479;SDS011;62333;51.980;5.934;2023-07-30T02:31:04;4.88;;;1.05;;
38479;SDS011;62333;51.980;5.934;2023-07-30T02:33:29;4.60;;;1.40;;
38479;SDS011;62333;51.980;5.934;2023-07-30T02:35:55;8.98;;;2.53;;
38479;SDS011;62333;51.980;5.934;2023-07-30T02:38:20;4.60;;;1.27;;
38479;SDS011;62333;51.980;5.934;2023-07-30T02:40:46;5.97;;;2.08;;
38479;SDS011;62333;51.980;5.934;2023-07-30T02:43:12;4.22;;;1.48;;
38479;SDS011;62333;51.980;5.934;2023-07-30T02:45:38;6.28;;;2.10;;
38479;SDS011;62333;51.980;5.934;2023-07-30T02:48:03;5.13;;;1.40;;
38479;SDS011;62333;51.980;5.934;2023-07-30T02:50:29;8.32;;;1.80;;
38479;SDS011;62333;51.980;5.934;2023-07-30T02:52:55;2.22;;;0.95;;
38479;SDS011;62333;51.980;5.934;2023-07-30T02:55:21;3.95;;;1.13;;
38479;SDS011;62333;51.980;5.934;2023-07-30T02:57:47;3.05;;;1.23;;
38479;SDS011;62333;51.980;5.934;2023-07-30T03:00:12;7.05;;;1.77;;
38479;SDS011;62333;51.980;5.934;2023-07-30T03:02:39;5.07;;;2.05;;
38479;SDS011;62333;51.980;5.934;2023-07-30T03:05:05;5.13;;;1.00;;
38479;SDS011;62333;51.980;5.934;2023-07-30T03:07:31;3.38;;;1.30;;
38479;SDS011;62333;51.980;5.934;2023-07-30T03:09:57;6.03;;;1.35;;
38479;SDS011;62333;51.980;5.934;2023-07-30T03:12:22;8.10;;;2.47;;
38479;SDS011;62333;51.980;5.934;2023-07-30T03:14:48;6.72;;;2.10;;
38479;SDS011;62333;51.980;5.934;2023-07-30T03:17:14;6.25;;;1.90;;
38479;SDS011;62333;51.980;5.934;2023-07-30T03:19:39;6.07;;;2.08;;
38479;SDS011;62333;51.980;5.934;2023-07-30T03:22:05;5.65;;;1.65;;
38479;SDS011;62333;51.980;5.934;2023-07-30T03:24:30;7.05;;;1.70;;
38479;SDS011;62333;51.980;5.934;2023-07-30T03:26:56;7.20;;;2.35;;
38479;SDS011;62333;51.980;5.934;2023-07-30T03:29:22;5.65;;;1.50;;
38479;SDS011;62333;51.980;5.934;2023-07-30T03:31:47;6.00;;;1.98;;
38479;SDS011;62333;51.980;5.934;2023-07-30T03:34:13;5.10;;;1.48;;
38479;SDS011;62333;51.980;5.934;2023-07-30T03:36:38;8.32;;;1.45;;
38479;SDS011;62333;51.980;5.934;2023-07-30T03:39:05;5.68;;;1.85;;
38479;SDS011;62333;51.980;5.934;2023-07-30T03:41:30;6.22;;;1.65;;
38479;SDS011;62333;51.980;5.934;2023-07-30T03:43:56;5.25;;;1.88;;
38479;SDS011;62333;51.980;5.934;2023-07-30T03:46:22;9.68;;;2.10;;
38479;SDS011;62333;51.980;5.934;2023-07-30T03:48:47;7.22;;;2.08;;
38479;SDS011;62333;51.980;5.934;2023-07-30T03:51:13;8.05;;;2.70;;
38479;SDS011;62333;51.980;5.934;2023-07-30T03:53:39;8.35;;;1.80;;
38479;SDS011;62333;51.980;5.934;2023-07-30T03:56:04;6.72;;;1.80;;
38479;SDS011;62333;51.980;5.934;2023-07-30T03:58:30;5.40;;;2.17;;
38479;SDS011;62333;51.980;5.934;2023-07-30T04:00:56;10.30;;;2.40;;
38479;SDS011;62333;51.980;5.934;2023-07-30T04:03:21;7.88;;;2.53;;
38479;SDS011;62333;51.980;5.934;2023-07-30T04:05:47;10.43;;;2.95;;
38479;SDS011;62333;51.980;5.934;2023-07-30T04:08:13;8.50;;;2.75;;
38479;SDS011;62333;51.980;5.934;2023-07-30T04:10:38;7.97;;;2.40;;
38479;SDS011;62333;51.980;5.934;2023-07-30T04:13:04;7.28;;;2.28;;
38479;SDS011;62333;51.980;5.934;2023-07-30T04:15:31;6.60;;;2.03;;
38479;SDS011;62333;51.980;5.934;2023-07-30T04:17:57;9.52;;;2.13;;
38479;SDS011;62333;51.980;5.934;2023-07-30T04:20:22;8.38;;;2.00;;
38479;SDS011;62333;51.980;5.934;2023-07-30T04:22:48;5.15;;;2.10;;
38479;SDS011;62333;51.980;5.934;2023-07-30T04:25:14;7.63;;;2.33;;
38479;SDS011;62333;51.980;5.934;2023-07-30T04:27:39;6.05;;;1.98;;
38479;SDS011;62333;51.980;5.934;2023-07-30T04:30:05;6.97;;;1.55;;
38479;SDS011;62333;51.980;5.934;2023-07-30T04:32:31;7.75;;;4.03;;
38479;SDS011;62333;51.980;5.934;2023-07-30T04:34:57;10.95;;;3.33;;
38479;SDS011;62333;51.980;5.934;2023-07-30T04:37:23;9.20;;;3.72;;
38479;SDS011;62333;51.980;5.934;2023-07-30T04:39:48;7.30;;;2.88;;
38479;SDS011;62333;51.980;5.934;2023-07-30T04:42:14;10.15;;;2.92;;
38479;SDS011;62333;51.980;5.934;2023-07-30T04:44:40;11.18;;;3.85;;
38479;SDS011;62333;51.980;5.934;2023-07-30T04:47:06;8.48;;;2.72;;
38479;SDS011;62333;51.980;5.934;2023-07-30T04:49:32;8.93;;;2.50;;
38479;SDS011;62333;51.980;5.934;2023-07-30T04:51:58;8.20;;;3.20;;
38479;SDS011;62333;51.980;5.934;2023-07-30T04:54:23;11.95;;;4.13;;
38479;SDS011;62333;51.980;5.934;2023-07-30T04:56:49;11.38;;;3.20;;
38479;SDS011;62333;51.980;5.934;2023-07-30T04:59:14;11.05;;;3.90;;
38479;SDS011;62333;51.980;5.934;2023-07-30T05:01:40;9.55;;;3.45;;
38479;SDS011;62333;51.980;5.934;2023-07-30T05:04:06;6.63;;;2.75;;
38479;SDS011;62333;51.980;5.934;2023-07-30T05:06:32;10.65;;;3.92;;
38479;SDS011;62333;51.980;5.934;2023-07-30T05:08:57;12.10;;;4.10;;
38479;SDS011;62333;51.980;5.934;2023-07-30T05:11:23;8.85;;;4.45;;
38479;SDS011;62333;51.980;5.934;2023-07-30T05:13:49;10.02;;;2.53;;
38479;SDS011;62333;51.980;5.934;2023-07-30T05:16:14;10.98;;;2.92;;
38479;SDS011;62333;51.980;5.934;2023-07-30T05:18:40;8.43;;;2.80;;
38479;SDS011;62333;51.980;5.934;2023-07-30T05:21:06;12.35;;;5.65;;
38479;SDS011;62333;51.980;5.934;2023-07-30T05:23:31;7.75;;;2.78;;
38479;SDS011;62333;51.980;5.934;2023-07-30T05:25:57;10.20;;;3.45;;
38479;SDS011;62333;51.980;5.934;2023-07-30T05:28:23;13.52;;;4.43;;
38479;SDS011;62333;51.980;5.934;2023-07-30T05:30:48;14.40;;;5.32;;
38479;SDS011;62333;51.980;5.934;2023-07-30T05:33:14;11.38;;;4.50;;
38479;SDS011;62333;51.980;5.934;2023-07-30T05:35:40;8.88;;;3.42;;
38479;SDS011;62333;51.980;5.934;2023-07-30T05:38:05;15.07;;;5.13;;
38479;SDS011;62333;51.980;5.934;2023-07-30T05:40:31;9.55;;;4.80;;
38479;SDS011;62333;51.980;5.934;2023-07-30T05:42:57;9.88;;;4.43;;
38479;SDS011;62333;51.980;5.934;2023-07-30T05:45:22;21.70;;;5.22;;
38479;SDS011;62333;51.980;5.934;2023-07-30T05:47:48;10.30;;;3.58;;
38479;SDS011;62333;51.980;5.934;2023-07-30T05:50:14;9.80;;;4.63;;
38479;SDS011;62333;51.980;5.934;2023-07-30T05:52:39;10.23;;;3.75;;
38479;SDS011;62333;51.980;5.934;2023-07-30T05:55:05;15.05;;;4.43;;
38479;SDS011;62333;51.980;5.934;2023-07-30T05:57:31;13.18;;;4.65;;
38479;SDS011;62333;51.980;5.934;2023-07-30T05:59:56;11.75;;;4.40;;
38479;SDS011;62333;51.980;5.934;2023-07-30T06:02:22;10.23;;;4.65;;
38479;SDS011;62333;51.980;5.934;2023-07-30T06:04:48;13.15;;;6.38;;
38479;SDS011;62333;51.980;5.934;2023-07-30T06:07:13;15.52;;;6.03;;
38479;SDS011;62333;51.980;5.934;2023-07-30T06:09:39;16.95;;;5.68;;
38479;SDS011;62333;51.980;5.934;2023-07-30T06:12:05;13.27;;;6.13;;
38479;SDS011;62333;51.980;5.934;2023-07-30T06:14:31;14.63;;;5.60;;
38479;SDS011;62333;51.980;5.934;2023-07-30T06:16:56;17.75;;;7.47;;
38479;SDS011;62333;51.980;5.934;2023-07-30T06:19:22;16.60;;;6.25;;
38479;SDS011;62333;51.980;5.934;2023-07-30T06:21:48;15.50;;;5.97;;
38479;SDS011;62333;51.980;5.934;2023-07-30T06:24:13;12.38;;;5.22;;
38479;SDS011;62333;51.980;5.934;2023-07-30T06:26:39;14.20;;;5.63;;
38479;SDS011;62333;51.980;5.934;2023-07-30T06:29:04;14.38;;;4.60;;
38479;SDS011;62333;51.980;5.934;2023-07-30T06:31:30;17.35;;;6.95;;
38479;SDS011;62333;51.980;5.934;2023-07-30T06:33:56;14.57;;;5.95;;
38479;SDS011;62333;51.980;5.934;2023-07-30T06:36:22;9.93;;;4.72;;
38479;SDS011;62333;51.980;5.934;2023-07-30T06:38:47;17.42;;;7.18;;
38479;SDS011;62333;51.980;5.934;2023-07-30T06:41:13;11.60;;;4.35;;
38479;SDS011;62333;51.980;5.934;2023-07-30T06:43:39;22.08;;;8.23;;
38479;SDS011;62333;51.980;5.934;2023-07-30T06:46:04;11.90;;;4.47;;
38479;SDS011;62333;51.980;5.934;2023-07-30T06:48:30;12.90;;;5.28;;
38479;SDS011;62333;51.980;5.934;2023-07-30T06:50:56;12.00;;;3.97;;
38479;SDS011;62333;51.980;5.934;2023-07-30T06:53:22;8.10;;;3.72;;
38479;SDS011;62333;51.980;5.934;2023-07-30T06:55:48;10.93;;;4.15;;
38479;SDS011;62333;51.980;5.934;2023-07-30T06:58:13;18.98;;;6.07;;
38479;SDS011;62333;51.980;5.934;2023-07-30T07:00:39;13.55;;;5.78;;
38479;SDS011;62333;51.980;5.934;2023-07-30T07:03:05;19.30;;;7.10;;
38479;SDS011;62333;51.980;5.934;2023-07-30T07:05:30;18.65;;;5.65;;
38479;SDS011;62333;51.980;5.934;2023-07-30T07:07:56;14.48;;;5.95;;
38479;SDS011;62333;51.980;5.934;2023-07-30T07:10:22;16.85;;;5.97;;
38479;SDS011;62333;51.980;5.934;2023-07-30T07:12:47;13.48;;;5.47;;
38479;SDS011;62333;51.980;5.934;2023-07-30T07:15:13;12.00;;;4.75;;
38479;SDS011;62333;51.980;5.934;2023-07-30T07:17:39;17.55;;;7.63;;
38479;SDS011;62333;51.980;5.934;2023-07-30T07:20:05;18.52;;;7.13;;
38479;SDS011;62333;51.980;5.934;2023-07-30T07:22:32;16.08;;;6.40;;
38479;SDS011;62333;51.980;5.934;2023-07-30T07:24:58;14.43;;;5.95;;
38479;SDS011;62333;51.980;5.934;2023-07-30T07:27:23;14.95;;;5.70;;
38479;SDS011;62333;51.980;5.934;2023-07-30T07:29:50;13.57;;;7.68;;
38479;SDS011;62333;51.980;5.934;2023-07-30T07:32:16;10.73;;;4.32;;
38479;SDS011;62333;51.980;5.934;2023-07-30T07:34:45;8.90;;;4.10;;
38479;SDS011;62333;51.980;5.934;2023-07-30T07:37:12;7.05;;;4.00;;
38479;SDS011;62333;51.980;5.934;2023-07-30T07:39:40;10.20;;;4.78;;
38479;SDS011;62333;51.980;5.934;2023-07-30T07:42:09;12.80;;;4.85;;
38479;SDS011;62333;51.980;5.934;2023-07-30T07:44:35;20.75;;;7.63;;
38479;SDS011;62333;51.980;5.934;2023-07-30T07:47:01;15.18;;;5.57;;
38479;SDS011;62333;51.980;5.934;2023-07-30T07:49:26;17.45;;;5.13;;
38479;SDS011;62333;51.980;5.934;2023-07-30T07:51:52;14.65;;;3.88;;
38479;SDS011;62333;51.980;5.934;2023-07-30T07:54:18;16.45;;;5.22;;
38479;SDS011;62333;51.980;5.934;2023-07-30T07:56:43;11.02;;;3.95;;
38479;SDS011;62333;51.980;5.934;2023-07-30T07:59:09;10.68;;;3.95;;
38479;SDS011;62333;51.980;5.934;2023-07-30T08:01:35;11.32;;;4.78;;
38479;SDS011;62333;51.980;5.934;2023-07-30T08:04:00;10.93;;;3.45;;
38479;SDS011;62333;51.980;5.934;2023-07-30T08:06:26;14.55;;;4.10;;
38479;SDS011;62333;51.980;5.934;2023-07-30T08:08:52;19.48;;;4.05;;
38479;SDS011;62333;51.980;5.934;2023-07-30T08:11:18;14.77;;;3.67;;
38479;SDS011;62333;51.980;5.934;2023-07-30T08:13:43;8.95;;;3.08;;
38479;SDS011;62333;51.980;5.934;2023-07-30T08:16:10;8.65;;;1.92;;
38479;SDS011;62333;51.980;5.934;2023-07-30T08:18:36;13.15;;;2.97;;
38479;SDS011;62333;51.980;5.934;2023-07-30T08:21:02;12.30;;;3.60;;
38479;SDS011;62333;51.980;5.934;2023-07-30T08:23:27;10.85;;;2.78;;
38479;SDS011;62333;51.980;5.934;2023-07-30T08:25:53;13.75;;;4.43;;
38479;SDS011;62333;51.980;5.934;2023-07-30T08:28:19;15.05;;;3.65;;
38479;SDS011;62333;51.980;5.934;2023-07-30T08:30:44;14.45;;;3.75;;
38479;SDS011;62333;51.980;5.934;2023-07-30T08:33:10;16.33;;;4.07;;
38479;SDS011;62333;51.980;5.934;2023-07-30T08:35:36;23.50;;;4.57;;
38479;SDS011;62333;51.980;5.934;2023-07-30T08:38:01;10.75;;;3.13;;
38479;SDS011;62333;51.980;5.934;2023-07-30T08:40:27;12.32;;;3.15;;
38479;SDS011;62333;51.980;5.934;2023-07-30T08:42:53;8.93;;;3.05;;
38479;SDS011;62333;51.980;5.934;2023-07-30T08:45:19;16.42;;;5.90;;
38479;SDS011;62333;51.980;5.934;2023-07-30T08:47:45;12.55;;;3.25;;
38479;SDS011;62333;51.980;5.934;2023-07-30T08:50:11;13.00;;;2.88;;
38479;SDS011;62333;51.980;5.934;2023-07-30T08:52:37;12.25;;;3.38;;
38479;SDS011;62333;51.980;5.934;2023-07-30T08:55:04;12.63;;;2.55;;
38479;SDS011;62333;51.980;5.934;2023-07-30T08:57:31;16.02;;;4.50;;
38479;SDS011;62333;51.980;5.934;2023-07-30T09:00:33;12.38;;;3.42;;
38479;SDS011;62333;51.980;5.934;2023-07-30T09:02:55;17.92;;;4.05;;
38479;SDS011;62333;51.980;5.934;2023-07-30T09:05:24;9.32;;;2.90;;
38479;SDS011;62333;51.980;5.934;2023-07-30T09:07:50;10.57;;;2.35;;
38479;SDS011;62333;51.980;5.934;2023-07-30T09:10:16;8.52;;;2.78;;
38479;SDS011;62333;51.980;5.934;2023-07-30T09:12:41;9.93;;;3.08;;
38479;SDS011;62333;51.980;5.934;2023-07-30T09:15:07;9.07;;;2.83;;
38479;SDS011;62333;51.980;5.934;2023-07-30T09:17:33;9.43;;;2.05;;
38479;SDS011;62333;51.980;5.934;2023-07-30T09:20:00;10.82;;;2.15;;
38479;SDS011;62333;51.980;5.934;2023-07-30T09:22:28;15.70;;;2.58;;
38479;SDS011;62333;51.980;5.934;2023-07-30T09:25:00;6.40;;;1.67;;
38479;SDS011;62333;51.980;5.934;2023-07-30T09:27:27;8.95;;;1.95;;
38479;SDS011;62333;51.980;5.934;2023-07-30T09:29:54;8.23;;;3.47;;
38479;SDS011;62333;51.980;5.934;2023-07-30T09:32:25;13.00;;;3.08;;
38479;SDS011;62333;51.980;5.934;2023-07-30T09:34:54;8.40;;;1.58;;
38479;SDS011;62333;51.980;5.934;2023-07-30T09:37:20;14.98;;;4.05;;
38479;SDS011;62333;51.980;5.934;2023-07-30T09:39:49;10.35;;;3.20;;
38479;SDS011;62333;51.980;5.934;2023-07-30T09:42:15;8.93;;;2.10;;
38479;SDS011;62333;51.980;5.934;2023-07-30T09:44:40;8.27;;;2.25;;
38479;SDS011;62333;51.980;5.934;2023-07-30T09:47:09;8.02;;;1.80;;
38479;SDS011;62333;51.980;5.934;2023-07-30T09:49:36;8.60;;;1.67;;
38479;SDS011;62333;51.980;5.934;2023-07-30T09:52:03;11.38;;;2.95;;
38479;SDS011;62333;51.980;5.934;2023-07-30T09:54:30;9.38;;;2.05;;
38479;SDS011;62333;51.980;5.934;2023-07-30T09:56:57;7.38;;;1.65;;
38479;SDS011;62333;51.980;5.934;2023-07-30T09:59:23;7.43;;;1.50;;
38479;SDS011;62333;51.980;5.934;2023-07-30T10:01:49;11.38;;;2.30;;
38479;SDS011;62333;51.980;5.934;2023-07-30T10:04:19;4.25;;;1.50;;
38479;SDS011;62333;51.980;5.934;2023-07-30T10:09:17;6.47;;;1.52;;
38479;SDS011;62333;51.980;5.934;2023-07-30T10:11:45;5.82;;;1.85;;
38479;SDS011;62333;51.980;5.934;2023-07-30T10:14:14;7.22;;;1.83;;
38479;SDS011;62333;51.980;5.934;2023-07-30T10:16:52;8.68;;;2.15;;
38479;SDS011;62333;51.980;5.934;2023-07-30T10:19:23;4.78;;;1.00;;
38479;SDS011;62333;51.980;5.934;2023-07-30T10:22:01;6.07;;;1.27;;
38479;SDS011;62333;51.980;5.934;2023-07-30T10:25:02;6.90;;;1.95;;
38479;SDS011;62333;51.980;5.934;2023-07-30T10:27:41;5.75;;;1.95;;
38479;SDS011;62333;51.980;5.934;2023-07-30T10:30:14;9.75;;;1.05;;
38479;SDS011;62333;51.980;5.934;2023-07-30T10:35:36;5.38;;;0.80;;
38479;SDS011;62333;51.980;5.934;2023-07-30T10:38:15;6.55;;;1.10;;
38479;SDS011;62333;51.980;5.934;2023-07-30T10:43:42;5.75;;;1.17;;
38479;SDS011;62333;51.980;5.934;2023-07-30T10:46:12;3.35;;;0.65;;
38479;SDS011;62333;51.980;5.934;2023-07-30T10:48:40;6.25;;;1.23;;
38479;SDS011;62333;51.980;5.934;2023-07-30T10:51:17;5.05;;;1.05;;
38479;SDS011;62333;51.980;5.934;2023-07-30T10:53:46;7.15;;;1.30;;
38479;SDS011;62333;51.980;5.934;2023-07-30T10:56:15;6.05;;;1.15;;
38479;SDS011;62333;51.980;5.934;2023-07-30T10:58:42;6.50;;;1.30;;
38479;SDS011;62333;51.980;5.934;2023-07-30T11:01:13;5.93;;;0.65;;
38479;SDS011;62333;51.980;5.934;2023-07-30T11:03:39;7.20;;;1.13;;
38479;SDS011;62333;51.980;5.934;2023-07-30T11:06:05;2.92;;;0.80;;
38479;SDS011;62333;51.980;5.934;2023-07-30T11:08:38;8.00;;;1.33;;
38479;SDS011;62333;51.980;5.934;2023-07-30T11:11:06;5.00;;;1.13;;
38479;SDS011;62333;51.980;5.934;2023-07-30T11:13:41;4.00;;;0.40;;
38479;SDS011;62333;51.980;5.934;2023-07-30T11:16:09;4.93;;;0.90;;
38479;SDS011;62333;51.980;5.934;2023-07-30T11:18:35;4.18;;;0.47;;
38479;SDS011;62333;51.980;5.934;2023-07-30T11:21:13;5.97;;;0.98;;
38479;SDS011;62333;51.980;5.934;2023-07-30T11:23:41;5.88;;;0.77;;
38479;SDS011;62333;51.980;5.934;2023-07-30T11:26:08;6.60;;;1.05;;
38479;SDS011;62333;51.980;5.934;2023-07-30T11:28:38;6.32;;;1.23;;
38479;SDS011;62333;51.980;5.934;2023-07-30T11:31:08;3.92;;;1.08;;
38479;SDS011;62333;51.980;5.934;2023-07-30T11:33:43;4.30;;;0.70;;
38479;SDS011;62333;51.980;5.934;2023-07-30T11:36:11;4.88;;;0.98;;
38479;SDS011;62333;51.980;5.934;2023-07-30T11:38:41;3.20;;;0.70;;
38479;SDS011;62333;51.980;5.934;2023-07-30T11:41:08;4.13;;;0.50;;
38479;SDS011;62333;51.980;5.934;2023-07-30T11:43:36;2.50;;;0.40;;
38479;SDS011;62333;51.980;5.934;2023-07-30T11:46:13;5.38;;;1.10;;
38479;SDS011;62333;51.980;5.934;2023-07-30T11:48:45;3.85;;;0.47;;
38479;SDS011;62333;51.980;5.934;2023-07-30T11:51:26;2.95;;;0.47;;
38479;SDS011;62333;51.980;5.934;2023-07-30T11:53:56;2.35;;;0.65;;
38479;SDS011;62333;51.980;5.934;2023-07-30T11:56:24;5.43;;;1.00;;
38479;SDS011;62333;51.980;5.934;2023-07-30T11:59:09;3.75;;;1.05;;
38479;SDS011;62333;51.980;5.934;2023-07-30T12:01:35;2.80;;;0.40;;
38479;SDS011;62333;51.980;5.934;2023-07-30T12:04:05;3.35;;;0.93;;
38479;SDS011;62333;51.980;5.934;2023-07-30T12:06:50;4.80;;;1.08;;
38479;SDS011;62333;51.980;5.934;2023-07-30T12:09:20;3.58;;;0.63;;
38479;SDS011;62333;51.980;5.934;2023-07-30T12:11:55;2.70;;;0.52;;
38479;SDS011;62333;51.980;5.934;2023-07-30T12:14:28;6.55;;;1.20;;
38479;SDS011;62333;51.980;5.934;2023-07-30T12:17:08;2.05;;;0.35;;
38479;SDS011;62333;51.980;5.934;2023-07-30T12:19:33;3.63;;;1.13;;
38479;SDS011;62333;51.980;5.934;2023-07-30T12:22:01;3.38;;;0.40;;
38479;SDS011;62333;51.980;5.934;2023-07-30T12:24:27;4.05;;;0.57;;
38479;SDS011;62333;51.980;5.934;2023-07-30T12:26:52;2.25;;;0.65;;
38479;SDS011;62333;51.980;5.934;2023-07-30T12:29:18;5.97;;;0.90;;
38479;SDS011;62333;51.980;5.934;2023-07-30T12:31:44;3.47;;;0.63;;
38479;SDS011;62333;51.980;5.934;2023-07-30T12:34:10;4.47;;;0.70;;
38479;SDS011;62333;51.980;5.934;2023-07-30T12:36:36;2.30;;;0.75;;
38479;SDS011;62333;51.980;5.934;2023-07-30T12:39:02;4.72;;;0.73;;
38479;SDS011;62333;51.980;5.934;2023-07-30T12:41:28;3.92;;;0.52;;
38479;SDS011;62333;51.980;5.934;2023-07-30T12:43:54;4.40;;;0.75;;
38479;SDS011;62333;51.980;5.934;2023-07-30T12:46:24;2.55;;;0.45;;
38479;SDS011;62333;51.980;5.934;2023-07-30T12:48:52;3.60;;;0.47;;
38479;SDS011;62333;51.980;5.934;2023-07-30T12:51:17;3.20;;;0.93;;
38479;SDS011;62333;51.980;5.934;2023-07-30T12:53:43;4.00;;;0.50;;
38479;SDS011;62333;51.980;5.934;2023-07-30T12:56:09;2.00;;;0.57;;
38479;SDS011;62333;51.980;5.934;2023-07-30T12:58:35;2.42;;;0.40;;
38479;SDS011;62333;51.980;5.934;2023-07-30T13:01:02;2.72;;;0.30;;
38479;SDS011;62333;51.980;5.934;2023-07-30T13:03:29;4.00;;;0.40;;
38479;SDS011;62333;51.980;5.934;2023-07-30T13:05:55;2.92;;;0.40;;
38479;SDS011;62333;51.980;5.934;2023-07-30T13:08:20;4.75;;;0.60;;
38479;SDS011;62333;51.980;5.934;2023-07-30T13:10:46;4.47;;;0.40;;
38479;SDS011;62333;51.980;5.934;2023-07-30T13:13:12;2.00;;;0.30;;
38479;SDS011;62333;51.980;5.934;2023-07-30T13:15:37;3.28;;;0.38;;
38479;SDS011;62333;51.980;5.934;2023-07-30T13:18:03;1.77;;;0.30;;
38479;SDS011;62333;51.980;5.934;2023-07-30T13:20:29;1.27;;;0.28;;
38479;SDS011;62333;51.980;5.934;2023-07-30T13:22:56;3.67;;;0.57;;
38479;SDS011;62333;51.980;5.934;2023-07-30T13:25:21;7.50;;;0.95;;
38479;SDS011;62333;51.980;5.934;2023-07-30T13:27:49;1.70;;;0.28;;
38479;SDS011;62333;51.980;5.934;2023-07-30T13:30:15;1.10;;;0.22;;
38479;SDS011;62333;51.980;5.934;2023-07-30T13:32:40;2.50;;;0.20;;
38479;SDS011;62333;51.980;5.934;2023-07-30T13:35:06;2.25;;;0.43;;
38479;SDS011;62333;51.980;5.934;2023-07-30T13:37:32;4.55;;;0.35;;
38479;SDS011;62333;51.980;5.934;2023-07-30T13:39:58;2.65;;;0.35;;
38479;SDS011;62333;51.980;5.934;2023-07-30T13:42:23;1.75;;;0.32;;
38479;SDS011;62333;51.980;5.934;2023-07-30T13:44:49;0.80;;;0.20;;
38479;SDS011;62333;51.980;5.934;2023-07-30T13:47:16;10.23;;;0.95;;
38479;SDS011;62333;51.980;5.934;2023-07-30T13:49:41;2.67;;;0.82;;
38479;SDS011;62333;51.980;5.934;2023-07-30T13:52:07;1.45;;;0.52;;
38479;SDS011;62333;51.980;5.934;2023-07-30T13:54:33;4.65;;;0.40;;
38479;SDS011;62333;51.980;5.934;2023-07-30T13:56:58;2.22;;;0.40;;
38479;SDS011;62333;51.980;5.934;2023-07-30T13:59:26;0.82;;;0.38;;
38479;SDS011;62333;51.980;5.934;2023-07-30T14:01:52;2.35;;;0.35;;
38479;SDS011;62333;51.980;5.934;2023-07-30T14:04:18;3.22;;;0.32;;
38479;SDS011;62333;51.980;5.934;2023-07-30T14:06:43;2.90;;;0.73;;
38479;SDS011;62333;51.980;5.934;2023-07-30T14:09:10;1.42;;;0.28;;
38479;SDS011;62333;51.980;5.934;2023-07-30T14:11:35;1.45;;;0.20;;
38479;SDS011;62333;51.980;5.934;2023-07-30T14:14:02;2.67;;;0.50;;
38479;SDS011;62333;51.980;5.934;2023-07-30T14:16:28;1.75;;;0.30;;
38479;SDS011;62333;51.980;5.934;2023-07-30T14:18:54;4.00;;;0.90;;
38479;SDS011;62333;51.980;5.934;2023-07-30T14:21:19;2.30;;;0.40;;
38479;SDS011;62333;51.980;5.934;2023-07-30T14:23:45;3.70;;;0.40;;
38479;SDS011;62333;51.980;5.934;2023-07-30T14:26:11;3.67;;;0.70;;
38479;SDS011;62333;51.980;5.934;2023-07-30T14:28:37;2.42;;;0.63;;
38479;SDS011;62333;51.980;5.934;2023-07-30T14:31:02;3.42;;;0.75;;
38479;SDS011;62333;51.980;5.934;2023-07-30T14:33:28;2.08;;;0.60;;
38479;SDS011;62333;51.980;5.934;2023-07-30T14:35:54;3.25;;;1.02;;
38479;SDS011;62333;51.980;5.934;2023-07-30T14:38:20;2.45;;;0.40;;
38479;SDS011;62333;51.980;5.934;2023-07-30T14:40:45;3.45;;;0.47;;
38479;SDS011;62333;51.980;5.934;2023-07-30T14:43:11;1.75;;;0.63;;
38479;SDS011;62333;51.980;5.934;2023-07-30T14:45:37;2.17;;;1.25;;
38479;SDS011;62333;51.980;5.934;2023-07-30T14:48:02;1.30;;;0.30;;
38479;SDS011;62333;51.980;5.934;2023-07-30T14:50:28;2.53;;;0.40;;
38479;SDS011;62333;51.980;5.934;2023-07-30T14:52:54;2.17;;;0.40;;